createdAt,value
2022-12-27T00:00:02.221Z,1.95
2022-12-27T00:02:28.567Z,1.17
2022-12-27T00:04:54.920Z,1.20
2022-12-27T00:07:21.264Z,1.10
2022-12-27T00:09:47.662Z,1.85
2022-12-27T00:12:13.965Z,1.77
2022-12-27T00:14:40.292Z,1.48
2022-12-27T00:17:06.631Z,1.20
2022-12-27T00:19:32.954Z,1.50
2022-12-27T00:21:59.425Z,1.25
2022-12-27T00:24:25.723Z,1.38
2022-12-27T00:26:52.049Z,1.35
2022-12-27T00:29:21.485Z,1.90
2022-12-27T00:31:50.881Z,2.05
2022-12-27T00:34:17.298Z,1.20
2022-12-27T00:36:43.709Z,1.58
2022-12-27T00:39:11.221Z,1.15
2022-12-27T00:41:39.018Z,1.30
2022-12-27T00:44:05.824Z,1.40
2022-12-27T00:46:32.193Z,1.60
2022-12-27T00:48:58.641Z,1.60
2022-12-27T00:51:25.876Z,1.45
2022-12-27T00:53:53.095Z,1.55
2022-12-27T00:56:30.354Z,1.60
2022-12-27T00:59:01.333Z,2.00
2022-12-27T01:01:31.012Z,3.00
2022-12-27T01:03:58.344Z,1.50
2022-12-27T01:06:28.692Z,1.50
2022-12-27T01:08:56.141Z,2.17
2022-12-27T01:11:22.790Z,1.83
2022-12-27T01:13:49.330Z,2.03
2022-12-27T01:16:23.995Z,1.40
2022-12-27T01:18:50.691Z,2.22
2022-12-27T01:21:20.556Z,2.00
2022-12-27T01:23:47.830Z,1.20
2022-12-27T01:26:18.135Z,1.60
2022-12-27T01:28:45.085Z,1.27
2022-12-27T01:31:17.463Z,1.20
2022-12-27T01:33:47.222Z,1.52
2022-12-27T01:38:45.241Z,2.20
2022-12-27T01:41:36.788Z,1.45
2022-12-27T01:44:43.399Z,1.95
2022-12-27T01:47:12.774Z,1.63
2022-12-27T01:49:43.384Z,1.63
2022-12-27T01:52:11.308Z,2.13
2022-12-27T01:54:37.901Z,1.95
2022-12-27T01:57:05.085Z,2.30
2022-12-27T01:59:33.080Z,2.35
2022-12-27T02:02:01.256Z,2.20
2022-12-27T02:04:30.753Z,1.52
2022-12-27T02:06:57.893Z,1.35
2022-12-27T02:09:40.577Z,1.38
2022-12-27T02:12:08.908Z,1.77
2022-12-27T02:14:38.905Z,1.80
2022-12-27T02:17:08.110Z,1.58
2022-12-27T02:19:40.470Z,2.22
2022-12-27T02:22:27.687Z,1.77
2022-12-27T02:25:25.083Z,2.63
2022-12-27T02:28:15.563Z,2.00
2022-12-27T02:30:44.973Z,2.33
2022-12-27T02:33:19.047Z,2.20
2022-12-27T02:35:54.119Z,1.58
2022-12-27T02:38:44.023Z,2.58
2022-12-27T02:41:30.456Z,1.90
2022-12-27T02:44:16.594Z,1.50
2022-12-27T02:47:01.686Z,1.55
2022-12-27T02:49:51.258Z,1.77
2022-12-27T02:52:51.956Z,1.85
2022-12-27T02:55:43.216Z,2.40
2022-12-27T02:58:31.446Z,2.45
2022-12-27T03:01:39.463Z,2.25
2022-12-27T03:04:28.639Z,1.77
2022-12-27T03:07:26.131Z,1.77
2022-12-27T03:10:45.143Z,1.60
2022-12-27T03:14:10.515Z,1.70
2022-12-27T03:16:55.609Z,1.98
2022-12-27T03:19:48.351Z,1.70
2022-12-27T03:22:36.640Z,1.92
2022-12-27T03:25:22.997Z,2.80
2022-12-27T03:28:12.168Z,1.67
2022-12-27T03:30:59.054Z,2.80
2022-12-27T03:33:27.406Z,2.08
2022-12-27T03:36:21.437Z,2.08
2022-12-27T03:38:55.015Z,1.95
2022-12-27T03:41:48.043Z,2.00
2022-12-27T03:44:26.912Z,3.47
2022-12-27T03:46:58.490Z,2.00
2022-12-27T03:49:39.328Z,2.00
2022-12-27T03:52:19.332Z,2.38
2022-12-27T03:54:49.411Z,2.35
2022-12-27T03:57:19.000Z,2.70
2022-12-27T03:59:45.695Z,2.28
2022-12-27T04:02:12.311Z,3.13
2022-12-27T04:04:38.923Z,2.00
2022-12-27T04:07:05.910Z,1.50
2022-12-27T04:09:50.928Z,2.13
2022-12-27T04:12:35.933Z,1.90
2022-12-27T04:15:21.016Z,2.45
2022-12-27T04:18:05.645Z,1.67
2022-12-27T04:20:50.948Z,2.75
2022-12-27T04:23:36.028Z,1.75
2022-12-27T04:26:21.129Z,1.95
2022-12-27T04:29:06.121Z,1.95
2022-12-27T04:31:51.112Z,2.22
2022-12-27T04:34:36.273Z,1.80
2022-12-27T04:37:02.894Z,2.15
2022-12-27T04:39:29.251Z,1.60
2022-12-27T04:42:14.362Z,2.05
2022-12-27T04:44:59.203Z,1.88
2022-12-27T04:47:44.303Z,3.40
2022-12-27T04:50:40.396Z,1.90
2022-12-27T04:53:34.803Z,2.00
2022-12-27T04:56:01.866Z,2.67
2022-12-27T04:58:28.529Z,2.65
2022-12-27T05:01:16.052Z,2.53
2022-12-27T05:03:44.741Z,2.30
2022-12-27T05:06:11.314Z,2.13
2022-12-27T05:08:56.729Z,2.47
2022-12-27T05:11:41.833Z,2.72
2022-12-27T05:14:12.763Z,2.58
2022-12-27T05:16:43.785Z,2.90
2022-12-27T05:19:13.177Z,2.72
2022-12-27T05:22:01.165Z,2.85
2022-12-27T05:24:46.484Z,2.13
2022-12-27T05:27:12.872Z,3.20
2022-12-27T05:29:39.219Z,2.63
2022-12-27T05:32:11.016Z,2.42
2022-12-27T05:34:39.389Z,2.00
2022-12-27T05:37:05.786Z,2.33
2022-12-27T05:39:32.142Z,3.38
2022-12-27T05:41:58.428Z,2.40
2022-12-27T05:44:24.739Z,2.63
2022-12-27T05:46:51.139Z,2.92
2022-12-27T05:49:17.463Z,2.85
2022-12-27T05:51:43.736Z,3.08
2022-12-27T05:54:10.106Z,3.25
2022-12-27T05:56:37.219Z,3.40
2022-12-27T05:59:04.639Z,3.75
2022-12-27T06:01:31.023Z,3.10
2022-12-27T06:03:57.378Z,2.95
2022-12-27T06:06:23.712Z,3.67
2022-12-27T06:08:50.581Z,4.25
2022-12-27T06:11:19.069Z,4.53
2022-12-27T06:13:51.463Z,3.97
2022-12-27T06:16:19.533Z,4.30
2022-12-27T06:18:46.059Z,3.90
2022-12-27T06:21:18.248Z,4.20
2022-12-27T06:23:45.641Z,4.53
2022-12-27T06:26:15.831Z,3.28
2022-12-27T06:28:42.154Z,3.88
2022-12-27T06:31:08.787Z,4.35
2022-12-27T06:33:35.462Z,5.03
2022-12-27T06:36:14.076Z,4.78
2022-12-27T06:38:40.688Z,5.13
2022-12-27T06:41:09.248Z,5.22
2022-12-27T06:43:36.330Z,4.68
2022-12-27T06:46:05.484Z,5.30
2022-12-27T06:48:32.190Z,4.03
2022-12-27T06:50:58.737Z,4.05
2022-12-27T06:53:25.448Z,4.75
2022-12-27T06:55:51.740Z,4.15
2022-12-27T06:58:18.210Z,4.90
2022-12-27T07:00:44.568Z,4.53
2022-12-27T07:03:10.957Z,4.47
2022-12-27T07:05:38.233Z,4.18
2022-12-27T07:08:05.153Z,4.25
2022-12-27T07:10:31.529Z,5.57
2022-12-27T07:12:58.212Z,4.70
2022-12-27T07:15:24.669Z,3.83
2022-12-27T07:17:50.968Z,4.13
2022-12-27T07:20:17.307Z,4.53
2022-12-27T07:22:43.620Z,5.28
2022-12-27T07:25:09.933Z,5.47
2022-12-27T07:27:37.388Z,5.35
2022-12-27T07:30:05.120Z,4.32
2022-12-27T07:32:31.816Z,5.38
2022-12-27T07:34:58.244Z,4.40
2022-12-27T07:37:24.779Z,5.15
2022-12-27T07:39:53.428Z,6.25
2022-12-27T07:42:19.714Z,4.80
2022-12-27T07:44:46.017Z,5.50
2022-12-27T07:47:12.401Z,4.30
2022-12-27T07:49:38.727Z,4.65
2022-12-27T07:52:05.066Z,5.10
2022-12-27T07:54:31.475Z,4.28
2022-12-27T07:56:57.804Z,4.18
2022-12-27T07:59:24.093Z,5.47
2022-12-27T08:02:05.593Z,5.15
2022-12-27T08:04:35.719Z,5.20
2022-12-27T08:07:14.546Z,6.03
2022-12-27T08:09:43.508Z,6.20
2022-12-27T08:12:10.663Z,6.28
2022-12-27T08:14:37.306Z,5.38
2022-12-27T08:17:07.699Z,5.82
2022-12-27T08:19:34.647Z,5.32
2022-12-27T08:22:00.997Z,4.18
2022-12-27T08:24:27.342Z,4.05
2022-12-27T08:26:53.725Z,4.10
2022-12-27T08:29:20.117Z,3.88
2022-12-27T08:31:46.586Z,4.53
2022-12-27T08:34:13.094Z,4.20
2022-12-27T08:36:59.432Z,4.00
2022-12-27T08:39:27.548Z,6.00
2022-12-27T08:41:54.128Z,4.88
2022-12-27T08:44:20.615Z,4.82
2022-12-27T08:46:47.372Z,4.60
2022-12-27T08:49:13.739Z,4.80
2022-12-27T08:51:41.432Z,4.30
2022-12-27T08:54:08.839Z,4.30
2022-12-27T08:56:35.414Z,4.18
2022-12-27T08:59:01.778Z,4.03
2022-12-27T09:01:28.679Z,3.95
2022-12-27T09:03:55.281Z,3.83
2022-12-27T09:06:23.908Z,4.32
2022-12-27T09:08:51.471Z,4.70
2022-12-27T09:11:24.192Z,3.75
2022-12-27T09:13:50.759Z,3.78
2022-12-27T09:16:20.398Z,3.78
2022-12-27T09:18:51.902Z,4.43
2022-12-27T09:21:20.296Z,4.28
2022-12-27T09:23:47.886Z,4.72
2022-12-27T09:26:17.546Z,4.45
2022-12-27T09:28:44.441Z,4.15
2022-12-27T09:31:12.400Z,4.50
2022-12-27T09:33:38.993Z,4.68
2022-12-27T09:36:11.244Z,3.80
2022-12-27T09:38:39.719Z,3.72
2022-12-27T09:44:43.729Z,4.03
2022-12-27T09:47:17.182Z,4.60
2022-12-27T09:49:47.429Z,4.05
2022-12-27T09:52:18.732Z,4.32
2022-12-27T09:55:02.502Z,4.35
2022-12-27T09:57:38.745Z,3.85
2022-12-27T10:00:34.720Z,4.10
2022-12-27T10:03:05.401Z,4.18
2022-12-27T10:05:36.343Z,4.30
2022-12-27T10:08:26.787Z,4.15
2022-12-27T10:11:33.240Z,4.72
2022-12-27T10:14:12.255Z,4.20
2022-12-27T10:16:58.333Z,4.28
2022-12-27T10:19:57.015Z,3.85
2022-12-27T10:22:32.504Z,3.83
2022-12-27T10:25:01.140Z,3.92
2022-12-27T10:27:28.947Z,4.03
2022-12-27T10:29:57.651Z,3.92
2022-12-27T10:32:24.873Z,3.80
2022-12-27T10:35:02.828Z,3.75
2022-12-27T10:37:29.492Z,3.58
2022-12-27T10:40:04.135Z,4.65
2022-12-27T10:42:38.402Z,4.35
2022-12-27T10:45:28.064Z,3.67
2022-12-27T10:48:11.621Z,3.72
2022-12-27T10:50:38.678Z,3.30
2022-12-27T10:53:05.122Z,4.03
2022-12-27T10:55:35.872Z,3.15
2022-12-27T10:58:52.894Z,3.20
2022-12-27T11:01:30.288Z,3.13
2022-12-27T11:04:15.951Z,3.20
2022-12-27T11:07:13.950Z,2.80
2022-12-27T11:09:50.813Z,3.42
2022-12-27T11:12:22.172Z,3.13
2022-12-27T11:15:01.390Z,3.15
2022-12-27T11:17:40.535Z,2.97
2022-12-27T11:20:30.264Z,3.10
2022-12-27T11:23:09.993Z,2.90
2022-12-27T11:25:48.999Z,3.35
2022-12-27T11:28:33.813Z,2.83
2022-12-27T11:31:07.075Z,2.78
2022-12-27T11:33:39.807Z,2.67
2022-12-27T11:36:08.600Z,2.63
2022-12-27T11:38:37.687Z,3.05
2022-12-27T11:41:13.936Z,2.47
2022-12-27T11:43:53.460Z,2.60
2022-12-27T11:46:27.944Z,2.78
2022-12-27T11:48:58.499Z,3.42
2022-12-27T11:51:57.207Z,2.80
2022-12-27T11:54:33.113Z,2.45
2022-12-27T11:57:17.294Z,2.78
2022-12-27T12:00:10.367Z,2.42
2022-12-27T12:03:01.617Z,2.35
2022-12-27T12:05:39.494Z,2.53
2022-12-27T12:08:34.726Z,2.10
2022-12-27T12:11:19.264Z,2.38
2022-12-27T12:14:18.998Z,2.33
2022-12-27T12:17:00.850Z,2.33
2022-12-27T12:19:48.877Z,2.10
2022-12-27T12:22:39.741Z,2.45
2022-12-27T12:25:38.171Z,2.30
2022-12-27T12:32:00.359Z,1.95
2022-12-27T12:34:55.795Z,2.38
2022-12-27T12:37:47.224Z,2.38
2022-12-27T12:40:31.468Z,2.20
2022-12-27T12:43:31.322Z,2.67
2022-12-27T12:46:25.436Z,2.33
2022-12-27T12:49:00.957Z,2.00
2022-12-27T12:51:52.344Z,2.35
2022-12-27T12:54:51.864Z,2.00
2022-12-27T12:57:40.374Z,2.17
2022-12-27T13:00:28.103Z,2.45
2022-12-27T13:02:57.602Z,2.30
2022-12-27T13:05:32.080Z,2.08
2022-12-27T13:08:18.617Z,2.53
2022-12-27T13:11:22.430Z,2.35
2022-12-27T13:14:10.678Z,1.90
2022-12-27T13:16:40.016Z,2.20
2022-12-27T13:22:17.089Z,2.72
2022-12-27T13:25:21.135Z,2.70
2022-12-27T13:27:56.480Z,2.90
2022-12-27T13:33:21.837Z,2.40
2022-12-27T13:36:07.921Z,2.65
2022-12-27T13:38:43.025Z,3.30
2022-12-27T13:41:35.790Z,3.17
2022-12-27T13:44:22.813Z,2.38
2022-12-27T13:47:29.201Z,2.65
2022-12-27T13:50:37.294Z,2.08
2022-12-27T13:53:32.208Z,2.35
2022-12-27T13:56:43.655Z,2.55
2022-12-27T13:59:17.323Z,1.90
2022-12-27T14:02:00.354Z,2.70
2022-12-27T14:05:01.311Z,2.17
2022-12-27T14:08:01.424Z,2.65
2022-12-27T14:10:55.246Z,2.30
2022-12-27T14:13:48.441Z,2.92
2022-12-27T14:16:33.508Z,2.20
2022-12-27T14:19:27.252Z,2.30
2022-12-27T14:22:17.676Z,2.10
2022-12-27T14:25:21.636Z,2.30
2022-12-27T14:28:09.841Z,2.08
2022-12-27T14:30:57.978Z,2.72
2022-12-27T14:33:37.184Z,2.40
2022-12-27T14:36:41.015Z,2.67
2022-12-27T14:39:34.892Z,2.90
2022-12-27T14:42:26.491Z,2.63
2022-12-27T14:45:27.586Z,2.33
2022-12-27T14:47:57.303Z,2.25
2022-12-27T14:53:10.807Z,2.33
2022-12-27T14:55:47.292Z,2.30
2022-12-27T14:58:40.886Z,2.25
2022-12-27T15:01:39.126Z,1.70
2022-12-27T15:04:14.266Z,2.25
2022-12-27T15:07:31.252Z,2.25
2022-12-27T15:10:15.630Z,1.90
2022-12-27T15:13:04.226Z,2.00
2022-12-27T15:16:15.559Z,2.92
2022-12-27T15:18:55.164Z,2.67
2022-12-27T15:22:04.324Z,2.58
2022-12-27T15:24:37.052Z,2.63
2022-12-27T15:27:29.834Z,2.72
2022-12-27T15:30:10.010Z,2.47
2022-12-27T15:32:53.546Z,2.40
2022-12-27T15:35:56.331Z,2.20
2022-12-27T15:39:02.355Z,3.47
2022-12-27T15:41:47.355Z,3.50
2022-12-27T15:44:48.735Z,3.30
2022-12-27T15:47:48.339Z,3.80
2022-12-27T15:50:39.167Z,3.05
2022-12-27T15:53:24.082Z,3.15
2022-12-27T15:56:08.950Z,3.28
2022-12-27T15:58:35.865Z,3.20
2022-12-27T16:01:23.883Z,3.78
2022-12-27T16:03:56.298Z,3.83
2022-12-27T16:06:43.403Z,3.92
2022-12-27T16:09:24.962Z,4.20
2022-12-27T16:12:37.141Z,3.45
2022-12-27T16:15:52.171Z,4.30
2022-12-27T16:18:21.284Z,3.92
2022-12-27T16:21:00.264Z,3.63
2022-12-27T16:23:31.134Z,3.63
2022-12-27T16:26:26.014Z,4.22
2022-12-27T16:28:59.375Z,4.60
2022-12-27T16:31:31.375Z,3.95
2022-12-27T16:33:59.958Z,3.60
2022-12-27T16:36:29.712Z,3.88
2022-12-27T16:39:15.632Z,3.65
2022-12-27T16:41:53.919Z,5.13
2022-12-27T16:44:26.366Z,5.60
2022-12-27T16:47:16.755Z,4.28
2022-12-27T16:50:02.279Z,3.92
2022-12-27T16:52:47.478Z,3.85
2022-12-27T16:55:29.530Z,4.30
2022-12-27T16:58:20.772Z,4.68
2022-12-27T17:00:50.244Z,5.30
2022-12-27T17:03:35.322Z,5.63
2022-12-27T17:06:33.855Z,6.18
2022-12-27T17:09:09.961Z,6.95
2022-12-27T17:11:42.503Z,7.22
2022-12-27T17:14:14.317Z,6.03
2022-12-27T17:16:46.351Z,5.15
2022-12-27T17:19:36.175Z,4.57
2022-12-27T17:22:07.866Z,5.45
2022-12-27T17:24:34.296Z,6.70
2022-12-27T17:27:22.086Z,5.50
2022-12-27T17:30:21.949Z,6.53
2022-12-27T17:32:57.670Z,4.70
2022-12-27T17:35:29.296Z,4.70
2022-12-27T17:38:17.679Z,4.90
2022-12-27T17:41:45.714Z,5.40
2022-12-27T17:44:39.739Z,5.50
2022-12-27T17:47:21.743Z,5.32
2022-12-27T17:49:48.824Z,5.82
2022-12-27T17:52:36.583Z,5.25
2022-12-27T17:55:36.045Z,5.80
2022-12-27T17:58:06.715Z,5.70
2022-12-27T18:00:55.671Z,5.03
2022-12-27T18:03:23.249Z,5.13
2022-12-27T18:05:49.968Z,5.32
2022-12-27T18:08:28.923Z,5.90
2022-12-27T18:10:59.865Z,5.80
2022-12-27T18:13:29.939Z,5.68
2022-12-27T18:15:57.206Z,5.07
2022-12-27T18:18:33.991Z,4.95
2022-12-27T18:21:03.812Z,5.93
2022-12-27T18:23:40.312Z,4.50
2022-12-27T18:26:13.319Z,4.57
2022-12-27T18:28:41.126Z,4.75
2022-12-27T18:31:22.746Z,5.03
2022-12-27T18:34:03.363Z,4.85
2022-12-27T18:36:56.670Z,5.13
2022-12-27T18:39:35.692Z,4.90
2022-12-27T18:42:27.606Z,5.25
2022-12-27T18:45:01.870Z,6.13
2022-12-27T18:47:28.456Z,7.13
2022-12-27T18:50:00.813Z,7.68
2022-12-27T18:52:39.363Z,7.28
2022-12-27T18:55:11.930Z,7.03
2022-12-27T18:57:38.279Z,6.82
2022-12-27T19:00:25.177Z,6.28
2022-12-27T19:02:53.252Z,7.40
2022-12-27T19:05:19.576Z,7.55
2022-12-27T19:07:48.164Z,8.90
2022-12-27T19:10:18.930Z,8.10
2022-12-27T19:12:46.548Z,7.15
2022-12-27T19:15:22.026Z,7.60
2022-12-27T19:17:53.145Z,7.45
2022-12-27T19:20:26.800Z,7.63
2022-12-27T19:22:56.757Z,7.85
2022-12-27T19:25:27.133Z,7.68
2022-12-27T19:28:14.692Z,7.70
2022-12-27T19:30:51.200Z,8.20
2022-12-27T19:33:32.804Z,12.65
2022-12-27T19:36:00.266Z,10.25
2022-12-27T19:38:28.765Z,27.90
2022-12-27T19:41:03.697Z,24.52
2022-12-27T19:43:35.920Z,22.20
2022-12-27T19:46:02.414Z,9.10
2022-12-27T19:48:28.732Z,9.55
2022-12-27T19:50:55.665Z,24.90
2022-12-27T19:53:35.584Z,11.45
2022-12-27T19:56:02.871Z,13.82
2022-12-27T19:58:30.608Z,10.98
2022-12-27T20:00:58.143Z,12.32
2022-12-27T20:03:25.378Z,10.45
2022-12-27T20:06:14.687Z,12.93
2022-12-27T20:08:45.821Z,20.10
2022-12-27T20:11:18.334Z,9.38
2022-12-27T20:13:44.951Z,8.77
2022-12-27T20:16:13.980Z,7.90
2022-12-27T20:18:41.210Z,7.03
2022-12-27T20:21:12.945Z,6.25
2022-12-27T20:23:39.284Z,10.80
2022-12-27T20:26:05.769Z,7.65
2022-12-27T20:28:33.039Z,8.48
2022-12-27T20:31:05.427Z,7.57
2022-12-27T20:33:34.823Z,7.05
2022-12-27T20:36:04.872Z,7.60
2022-12-27T20:38:31.222Z,8.50
2022-12-27T20:41:04.707Z,8.93
2022-12-27T20:43:31.290Z,8.02
2022-12-27T20:46:04.132Z,9.23
2022-12-27T20:48:30.491Z,8.55
2022-12-27T20:51:07.168Z,9.40
2022-12-27T20:53:33.506Z,7.75
2022-12-27T20:56:04.592Z,8.32
2022-12-27T20:58:32.490Z,7.60
2022-12-27T21:01:09.616Z,8.65
2022-12-27T21:03:37.333Z,6.45
2022-12-27T21:06:22.182Z,7.82
2022-12-27T21:08:56.285Z,8.25
2022-12-27T21:11:31.055Z,8.52
2022-12-27T21:13:57.769Z,7.78
2022-12-27T21:16:26.443Z,8.57
2022-12-27T21:18:53.574Z,8.73
2022-12-27T21:21:27.371Z,8.27
2022-12-27T21:23:54.975Z,9.10
2022-12-27T21:26:23.517Z,8.60
2022-12-27T21:28:49.857Z,8.55
2022-12-27T21:31:17.387Z,9.85
2022-12-27T21:33:44.615Z,8.55
2022-12-27T21:36:13.959Z,8.32
2022-12-27T21:38:41.156Z,8.80
2022-12-27T21:41:14.142Z,8.85
2022-12-27T21:43:41.013Z,8.95
2022-12-27T21:46:12.757Z,9.55
2022-12-27T21:48:39.170Z,7.88
2022-12-27T21:51:16.796Z,7.63
2022-12-27T21:53:44.228Z,8.13
2022-12-27T21:56:12.578Z,8.10
2022-12-27T21:58:40.016Z,7.63
2022-12-27T22:01:10.276Z,8.05
2022-12-27T22:03:38.824Z,6.88
2022-12-27T22:06:13.912Z,8.32
2022-12-27T22:08:41.794Z,7.85
2022-12-27T22:11:08.209Z,7.38
2022-12-27T22:13:34.555Z,7.50
2022-12-27T22:16:03.466Z,8.07
2022-12-27T22:18:39.606Z,7.00
2022-12-27T22:23:35.179Z,7.05
2022-12-27T22:26:01.734Z,7.85
2022-12-27T22:28:28.473Z,7.75
2022-12-27T22:30:54.919Z,8.60
2022-12-27T22:33:21.305Z,8.63
2022-12-27T22:35:47.619Z,8.98
2022-12-27T22:38:14.053Z,10.48
2022-12-27T22:40:46.228Z,8.88
2022-12-27T22:43:13.493Z,8.82
2022-12-27T22:45:44.605Z,9.07
2022-12-27T22:48:12.816Z,11.40
2022-12-27T22:50:39.209Z,9.93
2022-12-27T22:53:05.616Z,12.10
2022-12-27T22:55:31.925Z,11.57
2022-12-27T22:57:58.253Z,10.27
2022-12-27T23:00:24.681Z,11.73
2022-12-27T23:02:52.580Z,12.38
2022-12-27T23:05:18.923Z,12.25
2022-12-27T23:08:06.057Z,11.85
2022-12-27T23:10:31.751Z,9.68
2022-12-27T23:12:58.094Z,9.90
2022-12-27T23:15:24.405Z,9.85
2022-12-27T23:17:52.266Z,11.35
2022-12-27T23:20:18.834Z,10.88
2022-12-27T23:22:45.198Z,10.38
2022-12-27T23:25:11.478Z,11.40
2022-12-27T23:27:37.850Z,9.82
2022-12-27T23:30:04.669Z,21.95
2022-12-27T23:32:30.981Z,13.95
2022-12-27T23:34:57.310Z,9.88
2022-12-27T23:37:23.705Z,12.30
2022-12-27T23:39:50.038Z,39.15
2022-12-27T23:42:16.381Z,11.52
2022-12-27T23:44:42.670Z,10.77
2022-12-27T23:47:09.189Z,17.02
2022-12-27T23:49:35.554Z,11.85
2022-12-27T23:52:02.207Z,12.73
2022-12-27T23:54:28.595Z,12.45
2022-12-27T23:56:54.878Z,12.95
2022-12-27T23:59:21.240Z,12.70
